Time;durP1;ratioP1;P1;durP2;ratioP2;P2;SDS_P1;SDS_P2;PMS_P1;PMS_P2;Temp;Humidity;BMP_temperature;BMP_pressure;BME280_temperature;BME280_humidity;BME280_pressure;Samples;Min_cycle;Max_cycle;Signal;HPM_P1;HPM_P2
2023/10/01 00:01:44;;;;;;;10.57;4.75;;;;;;;15.97;54.04;99918.56;5107373;28;20050;-76
2023/10/01 00:04:12;;;;;;;7.82;3.65;;;;;;;16.75;53.08;100063.84;5107372;28;20040;-76
2023/10/01 00:06:40;;;;;;;5.60;3.15;;;;;;;16.84;55.32;100063.19;5106013;28;20046;-77
2023/10/01 00:09:07;;;;;;;6.35;3.30;;;;;;;16.85;54.88;100056.88;5106371;28;20039;-75
2023/10/01 00:11:35;;;;;;;7.88;4.90;;;;;;;16.85;55.79;100062.25;5107452;28;20165;-76
2023/10/01 00:14:06;;;;;;;7.78;3.78;;;;;;;16.50;53.35;100037.03;5106264;28;20208;-76
2023/10/01 00:16:32;;;;;;;8.57;3.83;;;;;;;16.74;55.70;100062.13;5107132;28;20082;-76
2023/10/01 00:19:00;;;;;;;4.82;3.28;;;;;;;16.73;55.03;100055.06;5107557;28;20097;-76
2023/10/01 00:21:28;;;;;;;7.25;3.35;;;;;;;16.72;55.82;100042.66;5106343;28;20119;-77
2023/10/01 00:23:57;;;;;;;6.60;3.30;;;;;;;16.78;56.16;100052.91;5106426;28;20073;-77
2023/10/01 00:26:24;;;;;;;6.35;3.42;;;;;;;16.72;55.89;100050.66;5089244;28;20192;-76
2023/10/01 00:28:51;;;;;;;7.93;5.20;;;;;;;16.74;56.16;100050.56;5105974;28;20231;-77
2023/10/01 00:31:19;;;;;;;9.48;4.93;;;;;;;16.70;55.68;100043.72;5106861;28;20248;-77
2023/10/01 00:33:47;;;;;;;14.00;8.75;;;;;;;16.03;55.15;99951.06;5107320;28;20270;-77
2023/10/01 00:36:13;;;;;;;14.10;8.65;;;;;;;16.63;56.40;100051.28;5105901;28;20349;-77
2023/10/01 00:38:40;;;;;;;9.88;5.97;;;;;;;16.64;55.88;100047.63;5105849;28;20036;-77
2023/10/01 00:41:09;;;;;;;8.73;5.07;;;;;;;16.59;56.03;100039.06;5106941;28;20050;-77
2023/10/01 00:43:37;;;;;;;6.25;3.95;;;;;;;15.95;56.80;99941.84;5105780;28;20123;-77
2023/10/01 00:46:04;;;;;;;12.77;4.68;;;;;;;16.52;56.27;100049.34;5106645;28;20036;-77
2023/10/01 00:48:31;;;;;;;6.55;3.80;;;;;;;16.25;56.06;100011.97;5106603;28;20070;-77
2023/10/01 00:51:00;;;;;;;5.90;3.47;;;;;;;16.41;55.99;100029.63;5106759;28;20040;-76
2023/10/01 00:53:27;;;;;;;6.07;3.65;;;;;;;16.49;55.37;100049.56;5105612;28;20250;-77
2023/10/01 00:55:55;;;;;;;5.68;3.15;;;;;;;16.51;56.44;100047.63;5106708;28;20307;-76
2023/10/01 00:58:23;;;;;;;5.38;3.20;;;;;;;16.53;56.12;100050.19;5106279;28;20089;-76
2023/10/01 01:00:50;;;;;;;7.10;3.67;;;;;;;16.48;56.61;100047.84;5106391;28;20048;-75
2023/10/01 01:03:21;;;;;;;7.07;3.92;;;;;;;16.45;56.30;100056.06;5106265;28;20055;-75
2023/10/01 01:06:12;;;;;;;5.95;2.63;;;;;;;15.91;55.65;99959.06;5106246;28;20042;-75
2023/10/01 01:08:49;;;;;;;4.60;3.33;;;;;;;16.48;56.02;100046.97;5106595;28;20071;-79
2023/10/01 01:11:16;;;;;;;5.93;2.72;;;;;;;16.06;55.07;99979.41;5107106;28;20059;-80
2023/10/01 01:13:44;;;;;;;5.88;3.15;;;;;;;16.49;54.76;100052.22;5108408;28;20192;-78
2023/10/01 01:16:12;;;;;;;7.78;3.38;;;;;;;16.52;55.49;100059.19;5107014;28;20050;-77
2023/10/01 01:18:41;;;;;;;6.88;3.60;;;;;;;16.40;56.38;100054.69;5105373;28;20058;-77
2023/10/01 01:21:10;;;;;;;10.18;3.58;;;;;;;16.08;56.48;100014.06;5106125;28;20044;-76
2023/10/01 01:23:41;;;;;;;9.10;3.00;;;;;;;16.38;56.15;100053.91;5105981;28;20032;-76
2023/10/01 01:26:10;;;;;;;7.18;2.92;;;;;;;16.35;56.28;100057.66;5105956;28;20036;-77
2023/10/01 01:28:37;;;;;;;6.93;3.40;;;;;;;16.31;56.61;100046.31;5106153;28;20044;-77
2023/10/01 01:31:05;;;;;;;6.40;3.15;;;;;;;16.24;56.90;100050.38;5105029;28;20044;-76
2023/10/01 01:33:40;;;;;;;5.55;3.70;;;;;;;16.22;57.20;100054.09;5106388;28;20284;-76
2023/10/01 01:36:09;;;;;;;5.63;3.13;;;;;;;16.17;57.20;100053.56;5106288;28;20195;-76
2023/10/01 01:38:43;;;;;;;6.70;3.15;;;;;;;16.18;57.11;100047.25;5105928;28;20036;-76
2023/10/01 01:41:12;;;;;;;6.10;3.47;;;;;;;16.14;57.14;100051.09;5105461;28;20274;-76
2023/10/01 01:43:39;;;;;;;5.65;3.30;;;;;;;16.08;56.88;100048.81;5105950;28;20127;-76
2023/10/01 01:46:08;;;;;;;6.43;3.55;;;;;;;16.13;57.84;100046.69;5106407;28;20044;-76
2023/10/01 01:48:40;;;;;;;6.97;3.55;;;;;;;15.69;57.79;99992.56;5105693;28;20037;-77
2023/10/01 01:51:08;;;;;;;6.57;3.20;;;;;;;16.11;58.09;100053.97;5105893;28;20188;-76
2023/10/01 01:53:36;;;;;;;5.82;3.65;;;;;;;16.10;58.58;100044.22;5106210;28;20355;-76
2023/10/01 01:56:08;;;;;;;6.32;4.18;;;;;;;16.11;59.28;100045.94;5105008;28;20043;-76
2023/10/01 01:58:35;;;;;;;11.77;5.63;;;;;;;16.07;57.30;100047.97;5105801;28;20044;-76
2023/10/01 02:01:08;;;;;;;7.10;4.25;;;;;;;16.03;57.25;100047.31;5105670;28;20043;-76
2023/10/01 02:03:37;;;;;;;8.48;4.07;;;;;;;15.74;56.65;99994.94;5105529;28;20115;-76
2023/10/01 02:06:07;;;;;;;7.22;4.10;;;;;;;16.01;57.15;100046.56;5105561;28;20107;-76
2023/10/01 02:08:48;;;;;;;5.32;2.72;;;;;;;15.98;57.69;100046.75;5105724;28;20036;-76
2023/10/01 02:11:18;;;;;;;8.48;3.55;;;;;;;15.93;58.06;100043.53;5104639;28;20043;-77
2023/10/01 02:13:46;;;;;;;6.75;3.40;;;;;;;15.98;58.37;100040.56;5105685;28;20040;-77
2023/10/01 02:16:34;;;;;;;7.55;3.63;;;;;;;15.99;58.07;100040.47;5105996;28;20044;-76
2023/10/01 02:19:14;;;;;;;7.90;3.63;;;;;;;15.92;57.31;100038.28;5105522;28;20044;-77
2023/10/01 02:21:48;;;;;;;6.70;3.00;;;;;;;15.97;58.24;100042.38;5105712;28;20062;-76
2023/10/01 02:24:22;;;;;;;6.55;3.15;;;;;;;15.96;57.60;100045.16;5104508;28;20074;-77
2023/10/01 02:26:59;;;;;;;7.30;3.17;;;;;;;15.81;58.10;100014.09;5104771;28;20170;-76
2023/10/01 02:29:31;;;;;;;6.45;3.15;;;;;;;15.98;57.84;100041.41;5108564;28;20054;-77
2023/10/01 02:31:58;;;;;;;7.55;3.45;;;;;;;15.72;55.68;100023.56;5109261;28;20055;-75
2023/10/01 02:34:27;;;;;;;6.20;3.10;;;;;;;15.92;57.53;100038.28;5108366;28;20237;-77
2023/10/01 02:36:55;;;;;;;6.80;3.28;;;;;;;15.84;56.34;100030.78;5108246;28;20123;-74
2023/10/01 02:39:27;;;;;;;7.95;3.75;;;;;;;15.50;56.79;99951.09;5108967;28;20203;-75
2023/10/01 02:44:39;;;;;;;6.78;3.63;;;;;;;15.88;56.94;100032.28;5107788;28;20062;-75
2023/10/01 02:47:16;;;;;;;4.93;3.20;;;;;;;15.89;57.12;100028.66;5108924;28;20054;-77
2023/10/01 02:49:48;;;;;;;6.85;3.08;;;;;;;15.90;57.66;100027.69;5108854;28;20368;-77
2023/10/01 02:52:15;;;;;;;6.68;3.25;;;;;;;15.86;57.75;100028.88;5109093;28;20055;-77
2023/10/01 02:54:42;;;;;;;7.65;3.05;;;;;;;15.93;57.08;100026.66;5108591;28;20315;-77
2023/10/01 02:57:12;;;;;;;7.57;3.85;;;;;;;15.95;56.99;100024.72;5107882;28;20044;-77
2023/10/01 03:00:09;;;;;;;10.25;3.22;;;;;;;15.87;57.42;100019.03;5108573;28;20055;-78
2023/10/01 03:02:25;;;;;;;6.13;3.35;;;;;;;15.57;58.75;99979.13;5108445;28;20066;-77
2023/10/01 03:04:52;;;;;;;6.35;3.65;;;;;;;15.86;58.26;100023.53;5109058;28;20099;-78
2023/10/01 03:07:19;;;;;;;8.23;3.25;;;;;;;15.85;58.09;100024.47;5108830;28;20296;-78
2023/10/01 03:09:48;;;;;;;5.93;2.78;;;;;;;15.85;57.26;100027.16;5109074;28;20169;-76
2023/10/01 03:12:34;;;;;;;9.68;4.03;;;;;;;15.82;57.78;100024.69;5108391;28;20089;-76
2023/10/01 03:15:16;;;;;;;11.20;4.28;;;;;;;15.83;57.72;100028.22;5108444;28;20117;-77
2023/10/01 03:17:55;;;;;;;5.35;3.13;;;;;;;15.74;58.58;100029.69;5108281;28;20056;-77
2023/10/01 03:23:05;;;;;;;7.28;3.90;;;;;;;15.60;57.77;100001.16;5107981;28;20208;-77
2023/10/01 03:25:40;;;;;;;6.57;3.30;;;;;;;15.75;57.95;100033.22;5108418;28;20086;-77
2023/10/01 03:28:18;;;;;;;5.50;2.72;;;;;;;15.04;57.52;99917.59;5109048;28;20040;-78
2023/10/01 03:30:46;;;;;;;6.00;3.67;;;;;;;15.81;58.34;100030.13;5108347;28;20036;-78
2023/10/01 03:33:16;;;;;;;4.65;2.65;;;;;;;15.77;59.09;100029.47;5108463;28;20040;-77
2023/10/01 03:35:48;;;;;;;6.53;2.90;;;;;;;15.66;59.77;100027.50;5107784;28;20076;-77
2023/10/01 03:38:15;;;;;;;6.45;3.40;;;;;;;15.68;59.85;100028.25;5108107;28;20105;-76
2023/10/01 03:43:32;;;;;;;6.97;3.25;;;;;;;15.53;59.85;99985.63;5106672;28;20123;-76
2023/10/01 03:46:06;;;;;;;6.60;3.60;;;;;;;15.36;60.02;99963.56;5107732;28;20063;-77
2023/10/01 03:48:57;;;;;;;6.28;3.28;;;;;;;15.70;60.51;100018.34;5106954;28;20040;-77
2023/10/01 03:51:28;;;;;;;6.78;3.38;;;;;;;15.51;60.39;99983.06;5106711;28;20040;-76
2023/10/01 03:53:59;;;;;;;5.82;3.30;;;;;;;15.69;61.34;100021.09;5107935;28;20051;-77
2023/10/01 03:56:30;;;;;;;7.22;3.47;;;;;;;15.68;60.58;100017.56;5107857;28;20181;-76
2023/10/01 03:58:58;;;;;;;7.57;3.45;;;;;;;15.67;60.83;100018.53;5107692;28;20039;-76
2023/10/01 04:01:33;;;;;;;5.80;3.10;;;;;;;15.66;60.73;100024.84;5107581;28;20117;-77
2023/10/01 04:04:01;;;;;;;5.32;2.70;;;;;;;15.66;60.65;100022.16;5107385;28;20043;-77
2023/10/01 04:06:30;;;;;;;6.70;3.67;;;;;;;15.63;61.23;100024.16;5107898;28;20085;-77
2023/10/01 04:09:00;;;;;;;4.53;2.78;;;;;;;15.47;60.87;99989.56;5107293;28;20085;-77
2023/10/01 04:14:10;;;;;;;5.32;2.80;;;;;;;15.59;60.55;100025.31;5106337;28;20039;-77
2023/10/01 04:16:46;;;;;;;5.60;2.90;;;;;;;15.57;60.60;100029.88;5107251;28;20050;-76
2023/10/01 04:19:18;;;;;;;9.63;3.65;;;;;;;15.58;60.59;100028.94;5107323;28;20040;-76
2023/10/01 04:21:50;;;;;;;5.22;3.00;;;;;;;15.53;60.34;100021.22;5106183;28;20330;-76
2023/10/01 04:24:19;;;;;;;10.00;2.65;;;;;;;14.67;61.07;99887.06;5107335;28;20103;-76
2023/10/01 04:26:47;;;;;;;4.90;2.83;;;;;;;15.56;60.14;100026.38;5107298;28;20044;-77
2023/10/01 04:29:16;;;;;;;6.63;3.00;;;;;;;15.53;60.27;100025.69;5107011;28;20036;-77
2023/10/01 04:31:48;;;;;;;7.78;3.28;;;;;;;15.56;61.06;100022.84;5107192;28;20040;-76
2023/10/01 04:34:17;;;;;;;5.75;2.90;;;;;;;15.57;60.60;100020.06;5107128;28;20052;-76
2023/10/01 04:36:50;;;;;;;6.07;3.05;;;;;;;15.57;60.76;100029.88;5105924;28;20390;-76
2023/10/01 04:39:18;;;;;;;7.53;3.83;;;;;;;15.57;59.70;100022.72;5106957;28;20111;-77
2023/10/01 04:41:45;;;;;;;5.15;3.38;;;;;;;12.68;60.60;99535.44;5106953;28;20173;-76
2023/10/01 04:44:19;;;;;;;5.72;2.78;;;;;;;15.55;58.74;100023.78;5105767;28;20073;-77
2023/10/01 04:46:51;;;;;;;7.33;3.23;;;;;;;15.62;60.44;100027.78;5107209;28;20055;-76
2023/10/01 04:49:39;;;;;;;6.25;3.22;;;;;;;15.18;60.05;99947.88;5105695;28;20085;-76
2023/10/01 04:52:10;;;;;;;6.40;3.95;;;;;;;15.58;59.79;100027.13;5106733;28;20055;-77
2023/10/01 04:54:37;;;;;;;7.28;3.80;;;;;;;15.59;60.29;100033.31;5106926;28;20040;-76
2023/10/01 04:57:04;;;;;;;6.50;3.90;;;;;;;15.58;59.46;100039.63;5107235;28;20044;-77
2023/10/01 04:59:31;;;;;;;6.82;4.10;;;;;;;15.60;59.76;100037.72;5106858;28;20047;-76
2023/10/01 05:02:18;;;;;;;5.65;3.85;;;;;;;15.61;59.59;100042.94;5106822;28;20063;-76
2023/10/01 05:04:45;;;;;;;7.40;3.55;;;;;;;15.63;60.32;100034.84;5106279;28;20211;-76
2023/10/01 05:07:15;;;;;;;6.30;3.30;;;;;;;15.65;59.51;100036.47;5106496;28;20044;-76
2023/10/01 05:09:43;;;;;;;8.95;4.25;;;;;;;15.38;59.51;99992.84;5105335;28;20063;-76
2023/10/01 05:12:11;;;;;;;7.15;3.65;;;;;;;15.64;59.33;100045.41;5105769;28;20044;-76
2023/10/01 05:14:59;;;;;;;6.85;3.53;;;;;;;15.64;59.41;100056.09;5106324;28;20050;-77
2023/10/01 05:17:30;;;;;;;6.85;2.92;;;;;;;15.36;59.60;100003.63;5105911;28;20067;-77
2023/10/01 05:19:58;;;;;;;5.13;2.90;;;;;;;15.67;58.50;100058.63;5105964;28;20357;-76
2023/10/01 05:22:26;;;;;;;8.75;3.53;;;;;;;15.69;58.45;100055.84;5106195;28;20052;-76
2023/10/01 05:24:53;;;;;;;7.53;3.50;;;;;;;15.68;58.06;100054.97;5106210;28;20089;-76
2023/10/01 05:27:22;;;;;;;9.50;4.28;;;;;;;15.57;57.92;100052.13;5106222;28;20052;-76
2023/10/01 05:29:49;;;;;;;21.45;5.55;;;;;;;15.47;58.67;100028.78;5105868;28;20102;-77
2023/10/01 05:32:18;;;;;;;10.90;3.70;;;;;;;15.67;58.36;100055.09;5105605;28;20056;-77
2023/10/01 05:34:47;;;;;;;6.20;3.38;;;;;;;15.68;58.30;100062.16;5106146;28;20063;-77
2023/10/01 05:37:20;;;;;;;8.43;3.42;;;;;;;15.69;58.35;100063.84;5104945;28;20307;-77
2023/10/01 05:39:57;;;;;;;6.38;4.57;;;;;;;15.70;58.56;100057.56;5105943;28;20215;-76
2023/10/01 05:42:25;;;;;;;8.85;3.45;;;;;;;15.70;58.69;100060.22;5104900;28;20044;-76
2023/10/01 05:44:52;;;;;;;7.78;3.05;;;;;;;15.26;58.59;99991.81;5106041;28;20051;-76
2023/10/01 05:47:20;;;;;;;7.05;3.00;;;;;;;15.73;58.26;100045.81;5106258;28;20047;-77
2023/10/01 05:49:53;;;;;;;5.32;2.97;;;;;;;15.72;58.01;100047.63;5106250;28;20078;-77
2023/10/01 05:52:20;;;;;;;6.10;3.10;;;;;;;15.73;57.67;100037.78;5105670;28;20110;-76
2023/10/01 05:54:52;;;;;;;5.78;3.10;;;;;;;15.70;57.57;100049.53;5105678;28;20048;-76
2023/10/01 05:57:21;;;;;;;8.00;3.55;;;;;;;15.41;57.81;99997.97;5104761;28;20296;-76
2023/10/01 05:59:56;;;;;;;6.32;3.17;;;;;;;15.07;57.42;99940.56;5105785;28;20058;-77
2023/10/01 06:02:41;;;;;;;7.25;3.45;;;;;;;15.74;57.55;100044.84;5106109;28;20103;-77
2023/10/01 06:05:25;;;;;;;7.10;3.47;;;;;;;15.77;57.83;100048.19;5108814;28;20048;-77
2023/10/01 06:07:54;;;;;;;7.47;3.40;;;;;;;15.82;57.52;100048.75;5109783;28;20208;-77
2023/10/01 06:10:26;;;;;;;5.03;3.55;;;;;;;15.86;57.42;100054.75;5109979;28;20048;-77
2023/10/01 06:12:56;;;;;;;6.07;3.03;;;;;;;15.84;58.25;100046.81;5109931;28;20118;-77
2023/10/01 06:15:29;;;;;;;6.22;3.80;;;;;;;15.37;57.76;99970.59;5092398;28;20044;-77
2023/10/01 06:18:00;;;;;;;6.03;3.10;;;;;;;15.84;56.47;100049.50;5108450;28;20067;-77
2023/10/01 06:20:29;;;;;;;4.32;2.95;;;;;;;15.84;57.30;100056.66;5108500;28;20200;-77
2023/10/01 06:22:59;;;;;;;5.85;3.00;;;;;;;15.35;56.96;99977.00;5109978;28;20101;-77
2023/10/01 06:25:40;;;;;;;5.90;3.33;;;;;;;15.65;57.61;100016.91;5108408;28;20036;-77
2023/10/01 06:28:11;;;;;;;7.55;3.80;;;;;;;15.86;58.08;100050.25;5109474;28;20185;-77
2023/10/01 06:30:40;;;;;;;6.78;3.95;;;;;;;15.89;58.51;100057.22;5108894;28;20044;-77
2023/10/01 06:33:09;;;;;;;6.35;4.07;;;;;;;15.89;58.64;100054.53;5109482;28;20386;-77
2023/10/01 06:36:04;;;;;;;6.68;4.07;;;;;;;15.93;59.01;100056.91;5092229;28;20040;-77
2023/10/01 06:38:29;;;;;;;7.45;4.32;;;;;;;15.94;58.65;100060.44;5108905;28;20051;-77
2023/10/01 06:40:56;;;;;;;8.50;4.60;;;;;;;15.99;59.57;100058.31;5107979;28;20048;-77
2023/10/01 06:43:24;;;;;;;9.02;5.40;;;;;;;16.01;60.59;100057.25;5109276;28;20095;-77
2023/10/01 06:45:51;;;;;;;9.00;5.90;;;;;;;15.01;61.48;99892.91;5108901;28;20054;-76
2023/10/01 06:48:24;;;;;;;8.57;6.28;;;;;;;16.06;62.36;100061.44;5108357;28;20103;-76
2023/10/01 06:50:53;;;;;;;9.52;6.00;;;;;;;16.11;62.86;100059.31;5108671;28;20055;-77
2023/10/01 06:53:43;;;;;;;10.25;7.32;;;;;;;16.15;63.36;100061.69;5108712;28;20036;-77
2023/10/01 06:56:09;;;;;;;9.25;6.97;;;;;;;16.23;63.66;100062.03;5107951;28;20074;-77
2023/10/01 06:58:38;;;;;;;13.18;7.75;;;;;;;15.75;64.94;99979.75;5108686;28;20050;-77
2023/10/01 07:01:33;;;;;;;10.25;7.82;;;;;;;16.25;65.70;100060.09;5108512;28;20044;-77
2023/10/01 07:03:54;;;;;;;9.95;8.23;;;;;;;16.31;65.80;100065.03;5108404;28;20190;-77
2023/10/01 07:06:22;;;;;;;10.07;7.80;;;;;;;16.32;66.56;100058.72;5107945;28;20044;-77
2023/10/01 07:08:49;;;;;;;10.43;8.07;;;;;;;16.32;65.84;100064.06;5108030;28;20050;-77
2023/10/01 07:11:18;;;;;;;10.77;7.78;;;;;;;16.34;66.17;100063.97;5108459;28;20044;-77
2023/10/01 07:13:46;;;;;;;8.98;6.72;;;;;;;15.29;66.48;99884.78;5108400;28;20044;-76
2023/10/01 07:16:18;;;;;;;8.07;6.10;;;;;;;16.40;65.68;100070.72;5107040;28;20039;-77
2023/10/01 07:18:45;;;;;;;9.52;6.85;;;;;;;16.44;65.50;100072.22;5107447;28;20070;-77
2023/10/01 07:21:12;;;;;;;8.73;6.40;;;;;;;16.45;64.68;100074.81;5108012;28;20288;-77
2023/10/01 07:23:42;;;;;;;7.22;5.78;;;;;;;16.47;64.91;100077.38;5108837;28;20047;-77
2023/10/01 07:26:12;;;;;;;9.95;6.55;;;;;;;16.47;65.56;100078.22;5108781;28;20051;-77
2023/10/01 07:28:41;;;;;;;7.85;5.63;;;;;;;16.50;65.15;100080.69;5090701;28;20039;-77
2023/10/01 07:31:08;;;;;;;6.97;5.32;;;;;;;16.53;64.89;100083.16;5108036;28;20048;-78
2023/10/01 07:33:35;;;;;;;7.47;6.10;;;;;;;16.55;65.17;100081.25;5108563;28;20044;-77
2023/10/01 07:36:10;;;;;;;8.75;6.13;;;;;;;16.57;65.05;100078.47;5107922;28;20047;-78
2023/10/01 07:38:48;;;;;;;7.90;5.60;;;;;;;15.40;65.63;99886.75;5107984;28;20066;-77
2023/10/01 07:41:17;;;;;;;7.80;5.82;;;;;;;16.59;65.08;100084.56;5107876;28;20199;-77
2023/10/01 07:43:44;;;;;;;7.47;5.38;;;;;;;16.62;64.09;100087.03;5106926;28;20044;-77
2023/10/01 07:46:11;;;;;;;7.95;5.63;;;;;;;16.63;65.02;100097.63;5107156;28;20043;-77
2023/10/01 07:48:46;;;;;;;6.82;5.30;;;;;;;16.65;65.22;100092.16;5108001;28;20051;-77
2023/10/01 07:51:26;;;;;;;7.90;5.85;;;;;;;16.65;64.57;100085.00;5106707;28;20330;-77
2023/10/01 07:53:53;;;;;;;8.48;6.53;;;;;;;16.74;65.32;100088.03;5107871;28;20237;-77
2023/10/01 07:56:22;;;;;;;9.85;6.68;;;;;;;16.87;64.92;100076.38;5107295;28;20044;-77
2023/10/01 07:58:56;;;;;;;9.13;6.57;;;;;;;16.92;65.35;100089.44;5107249;28;20115;-77
2023/10/01 08:01:42;;;;;;;;;;;;;;;17.02;65.05;100093.19;5108229;28;20058;-77
2023/10/01 08:04:50;;;;;;;;;;;;;;;17.08;64.52;100097.25;5108158;28;19947;-77
2023/10/01 08:07:05;;;;;;;11.20;6.63;;;;;;;16.59;64.80;100017.66;5109959;28;19995;-78
2023/10/01 08:09:33;;;;;;;8.98;5.85;;;;;;;17.13;64.53;100106.69;5109978;28;20043;-78
2023/10/01 08:12:06;;;;;;;7.63;5.78;;;;;;;17.23;64.55;100109.59;5109549;28;20105;-77
2023/10/01 08:14:33;;;;;;;7.82;5.82;;;;;;;17.23;63.87;100104.25;5109689;28;20307;-78
2023/10/01 08:17:00;;;;;;;9.85;7.20;;;;;;;17.31;63.73;100104.56;5106583;28;20123;-77
2023/10/01 08:19:41;;;;;;;9.88;6.10;;;;;;;17.49;63.22;100107.75;5106181;28;20050;-76
2023/10/01 08:22:14;;;;;;;9.45;6.93;;;;;;;17.21;62.74;100052.59;5107095;28;20066;-77
2023/10/01 08:24:45;;;;;;;8.43;6.43;;;;;;;17.43;63.40;100042.03;5107532;28;20066;-77
2023/10/01 08:27:29;;;;;;;9.80;6.13;;;;;;;17.67;62.56;100078.78;5106557;28;20044;-77
2023/10/01 08:32:49;;;;;;;9.13;5.60;;;;;;;17.87;62.25;100078.19;5106886;28;20052;-78
2023/10/01 08:35:22;;;;;;;8.65;5.57;;;;;;;17.92;61.99;100076.88;5107193;28;20191;-78
2023/10/01 08:37:59;;;;;;;8.95;5.65;;;;;;;17.85;62.07;100077.44;5106474;28;20200;-78
2023/10/01 08:40:27;;;;;;;8.50;6.05;;;;;;;17.69;61.66;100044.69;5106577;28;20048;-77
2023/10/01 08:42:58;;;;;;;10.38;6.03;;;;;;;17.82;61.60;100059.75;5106657;28;20048;-77
2023/10/01 08:45:37;;;;;;;9.43;6.28;;;;;;;17.82;61.30;100064.25;5106869;28;20044;-77
2023/10/01 08:48:05;;;;;;;8.55;5.78;;;;;;;17.87;61.32;100062.09;5106580;28;20052;-77
2023/10/01 08:50:36;;;;;;;9.68;5.55;;;;;;;17.29;61.38;99959.16;5106636;28;20097;-77
2023/10/01 08:53:10;;;;;;;8.88;6.25;;;;;;;17.94;60.54;100064.19;5106227;28;20137;-77
2023/10/01 08:56:04;;;;;;;7.67;5.70;;;;;;;17.95;60.46;100060.53;5106675;28;20101;-76
2023/10/01 08:58:41;;;;;;;7.03;5.43;;;;;;;18.07;60.36;100066.81;5106176;28;20050;-76
2023/10/01 09:01:12;;;;;;;8.55;5.80;;;;;;;18.08;60.51;100063.16;5106717;28;20054;-76
2023/10/01 09:03:47;;;;;;;8.90;6.32;;;;;;;18.13;60.08;100065.50;5106316;28;20284;-77
2023/10/01 09:06:25;;;;;;;8.38;5.45;;;;;;;18.23;59.18;100058.47;5106762;28;20063;-76
2023/10/01 09:08:54;;;;;;;10.65;6.30;;;;;;;18.06;59.56;100032.06;5106424;28;20051;-77
2023/10/01 09:11:35;;;;;;;9.43;5.85;;;;;;;18.54;59.42;100068.59;5106294;28;20284;-77
2023/10/01 09:14:17;;;;;;;8.38;5.97;;;;;;;18.51;58.73;100062.59;5105336;28;20260;-76
2023/10/01 09:16:45;;;;;;;10.13;5.85;;;;;;;18.65;58.19;100062.41;5104973;28;20039;-76
2023/10/01 09:19:34;;;;;;;10.23;6.50;;;;;;;18.68;58.08;100039.84;5106192;28;20058;-76
2023/10/01 09:22:09;;;;;;;8.65;6.07;;;;;;;18.55;58.02;100043.47;5106051;28;20035;-76
2023/10/01 09:24:39;;;;;;;9.02;6.07;;;;;;;18.83;57.07;100066.34;5105086;28;20123;-76
2023/10/01 09:27:19;;;;;;;9.18;5.90;;;;;;;18.49;56.73;99976.81;5106392;28;20089;-77
2023/10/01 09:29:48;;;;;;;8.10;5.82;;;;;;;19.23;55.51;100074.81;5105881;28;20044;-77
2023/10/01 09:32:19;;;;;;;8.93;5.38;;;;;;;19.22;56.46;100069.56;5106189;28;20227;-77
2023/10/01 09:34:57;;;;;;;7.32;4.45;;;;;;;19.26;55.95;100072.84;5106050;28;20048;-76
2023/10/01 09:37:33;;;;;;;8.48;6.00;;;;;;;19.39;55.19;100073.63;5104607;28;20173;-76
2023/10/01 09:40:05;;;;;;;7.85;5.90;;;;;;;19.39;55.39;100073.63;5105759;28;20073;-77
2023/10/01 09:42:44;;;;;;;8.63;5.78;;;;;;;19.41;55.50;100068.97;5106015;28;20067;-77
2023/10/01 09:45:26;;;;;;;8.57;5.90;;;;;;;19.37;55.27;100073.69;5106245;28;20356;-77
2023/10/01 09:48:04;;;;;;;8.85;6.32;;;;;;;19.37;55.18;100079.06;5104610;28;20126;-76
2023/10/01 09:50:39;;;;;;;7.18;4.88;;;;;;;19.38;55.05;100079.94;5105650;28;20044;-77
2023/10/01 09:53:13;;;;;;;8.18;5.40;;;;;;;19.28;55.21;100078.97;5105661;28;20357;-77
2023/10/01 09:55:47;;;;;;;7.50;4.77;;;;;;;19.29;55.65;100072.59;5105904;28;20051;-77
2023/10/01 09:58:24;;;;;;;8.48;5.18;;;;;;;19.39;55.01;100068.22;5104638;28;20226;-77
2023/10/01 10:00:53;;;;;;;7.30;5.13;;;;;;;19.55;54.58;100066.00;5105722;28;20047;-77
2023/10/01 10:03:21;;;;;;;7.38;5.43;;;;;;;19.34;54.41;100027.41;5105047;28;20040;-77
2023/10/01 10:05:48;;;;;;;8.95;6.18;;;;;;;19.62;53.21;100061.00;5105481;28;20040;-77
2023/10/01 10:08:16;;;;;;;9.10;5.90;;;;;;;19.52;52.34;100051.00;5105374;28;20048;-75
2023/10/01 10:10:48;;;;;;;8.15;5.43;;;;;;;19.83;52.13;100062.81;5087855;28;20049;-76
2023/10/01 10:13:45;;;;;;;6.47;4.57;;;;;;;19.90;51.39;100059.63;5105611;28;20036;-77
2023/10/01 10:16:33;;;;;;;8.38;5.13;;;;;;;19.82;52.04;100062.94;5105422;28;20064;-76
2023/10/01 10:19:09;;;;;;;6.70;4.57;;;;;;;19.70;52.34;100063.91;5105647;28;20048;-76
2023/10/01 10:22:25;;;;;;;5.95;4.15;;;;;;;19.77;51.57;100057.91;5104281;28;20115;-76
2023/10/01 10:25:29;;;;;;;7.38;4.53;;;;;;;20.00;49.96;100050.66;5069889;28;20044;-76
2023/10/01 10:27:57;;;;;;;14.77;5.30;;;;;;;20.15;50.55;100052.06;5105587;28;20054;-76
2023/10/01 10:30:27;;;;;;;8.38;5.70;;;;;;;20.19;51.51;100047.28;5105224;28;20054;-76
2023/10/01 10:33:30;;;;;;;7.53;4.78;;;;;;;20.46;50.50;100046.81;5104166;28;20139;-76
2023/10/01 10:36:51;;;;;;;10.27;5.60;;;;;;;20.40;50.41;100050.03;5105237;28;20044;-77
2023/10/01 10:40:26;;;;;;;7.93;5.22;;;;;;;20.56;49.83;100044.19;5105744;28;20329;-77
2023/10/01 10:43:18;;;;;;;8.38;5.50;;;;;;;20.88;48.87;100044.94;5104218;28;20050;-76
2023/10/01 10:46:00;;;;;;;6.47;4.85;;;;;;;20.71;48.46;100002.47;5105630;28;20292;-76
2023/10/01 10:49:04;;;;;;;7.68;5.20;;;;;;;21.08;47.08;100044.09;5104161;28;20085;-76
2023/10/01 10:51:43;;;;;;;8.65;5.32;;;;;;;20.82;47.32;100014.00;5108864;28;20288;-76
2023/10/01 10:54:12;;;;;;;8.00;4.88;;;;;;;21.07;47.26;100039.69;5108688;28;20065;-76
2023/10/01 10:56:41;;;;;;;8.90;5.15;;;;;;;21.14;47.65;100032.78;5107924;28;20304;-75
2023/10/01 10:59:13;;;;;;;6.97;4.40;;;;;;;21.11;46.56;100024.09;5107493;28;20052;-76
2023/10/01 11:01:56;;;;;;;6.38;5.15;;;;;;;21.04;46.73;100010.31;5107848;28;20168;-78
2023/10/01 11:04:30;;;;;;;10.20;5.55;;;;;;;21.36;46.19;100011.97;5108699;28;20122;-74
2023/10/01 11:07:02;;;;;;;7.20;5.32;;;;;;;21.26;46.48;99995.78;5109037;28;20044;-74
2023/10/01 11:09:31;;;;;;;10.82;5.15;;;;;;;21.47;46.43;99995.69;5108564;28;20253;-71
2023/10/01 11:12:04;;;;;;;7.25;4.88;;;;;;;21.44;46.35;99996.81;5107865;28;20059;-72
2023/10/01 11:14:33;;;;;;;7.47;4.77;;;;;;;21.53;45.81;99995.13;5108874;28;20040;-72
2023/10/01 11:17:00;;;;;;;8.20;5.57;;;;;;;21.45;45.83;99998.53;5107044;28;20090;-72
2023/10/01 11:19:28;;;;;;;8.70;5.80;;;;;;;21.48;45.32;99989.31;5107192;28;20085;-73
2023/10/01 11:21:58;;;;;;;10.25;5.40;;;;;;;21.39;44.60;99993.69;5107760;28;20105;-73
2023/10/01 11:24:29;;;;;;;9.18;6.07;;;;;;;21.22;45.05;99971.94;5108030;28;20040;-74
2023/10/01 11:27:25;;;;;;;10.10;4.97;;;;;;;21.28;44.55;99988.41;5108430;28;20311;-73
2023/10/01 11:30:20;;;;;;;10.85;6.72;;;;;;;21.22;45.51;99988.09;5073249;28;20078;-72
2023/10/01 11:33:02;;;;;;;10.82;6.47;;;;;;;21.13;45.24;99989.78;5107635;28;20119;-73
2023/10/01 11:35:33;;;;;;;8.98;5.63;;;;;;;21.02;45.38;99979.94;5108122;28;20350;-73
2023/10/01 11:38:03;;;;;;;10.90;5.80;;;;;;;20.98;45.45;99973.09;5107758;28;20040;-73
2023/10/01 11:41:06;;;;;;;9.52;5.88;;;;;;;20.98;45.22;99989.25;5106886;28;20048;-72
2023/10/01 11:43:27;;;;;;;10.73;7.00;;;;;;;20.97;46.05;99971.38;5106422;28;20055;-72
2023/10/01 11:46:32;;;;;;;11.43;7.28;;;;;;;20.85;45.64;99961.69;5107612;28;20097;-73
2023/10/01 11:49:15;;;;;;;10.18;6.25;;;;;;;20.90;45.95;99974.75;5106496;28;20051;-73
2023/10/01 11:51:43;;;;;;;8.35;5.75;;;;;;;20.89;46.02;99965.81;5107863;28;20356;-74
2023/10/01 11:54:13;;;;;;;9.48;6.68;;;;;;;20.56;45.42;99915.78;5108025;28;20095;-73
2023/10/01 11:56:42;;;;;;;12.38;5.68;;;;;;;20.90;45.80;99961.28;5107967;28;20051;-73
2023/10/01 11:59:17;;;;;;;9.00;5.28;;;;;;;20.90;45.88;99959.44;5107669;28;20255;-73
2023/10/01 12:01:48;;;;;;;9.95;5.70;;;;;;;20.96;46.10;99955.38;5105779;28;20107;-73
2023/10/01 12:04:24;;;;;;;8.63;5.88;;;;;;;21.00;45.91;99956.78;5107388;28;20057;-74
2023/10/01 12:06:51;;;;;;;11.65;5.28;;;;;;;21.05;45.45;99951.88;5108081;28;20164;-74
2023/10/01 12:09:19;;;;;;;10.43;6.03;;;;;;;21.22;45.77;99943.13;5106429;28;20048;-74